Time;durP1;ratioP1;P1;durP2;ratioP2;P2;SDS_P1;SDS_P2;PMS_P1;PMS_P2;Temp;Humidity;BMP_temperature;BMP_pressure;BME280_temperature;BME280_humidity;BME280_pressure;Samples;Min_cycle;Max_cycle;Signal;HPM_P1;HPM_P2
2022/11/17 00:01:41;;;;;;;1.88;0.88;;;11.60;99.90;;;;;;5053081;28;20111;-77
2022/11/17 00:04:06;;;;;;;1.52;0.80;;;11.60;99.90;;;;;;5053282;28;20029;-76
2022/11/17 00:06:32;;;;;;;3.47;0.70;;;11.60;99.90;;;;;;5054115;28;20470;-77
2022/11/17 00:08:57;;;;;;;1.52;0.90;;;11.60;99.90;;;;;;5052615;28;20029;-76
2022/11/17 00:11:23;;;;;;;2.55;0.90;;;11.60;99.90;;;;;;5054476;28;20127;-76
2022/11/17 00:16:33;;;;;;;3.03;1.00;;;11.60;99.90;;;;;;5054121;28;20056;-76
2022/11/17 00:21:42;;;;;;;1.10;0.90;;;11.60;99.90;;;;;;5053579;28;20036;-76
2022/11/17 00:24:08;;;;;;;1.17;0.70;;;11.70;99.90;;;;;;5054023;28;20020;-77
2022/11/17 00:27:00;;;;;;;2.55;0.90;;;11.70;99.90;;;;;;5053865;28;20099;-77
2022/11/17 00:29:20;;;;;;;3.15;0.88;;;11.70;99.90;;;;;;5053529;28;20466;-76
2022/11/17 00:34:30;;;;;;;2.15;0.73;;;11.70;99.90;;;;;;5053926;28;20091;-76
2022/11/17 00:36:56;;;;;;;3.20;1.00;;;11.70;99.90;;;;;;5052144;28;20028;-77
2022/11/17 00:39:22;;;;;;;2.50;1.10;;;11.70;99.90;;;;;;5052855;28;20033;-77
2022/11/17 00:41:49;;;;;;;1.48;0.75;;;11.60;99.90;;;;;;5052175;28;20048;-77
2022/11/17 00:44:15;;;;;;;2.95;1.00;;;11.60;99.90;;;;;;5052883;28;20382;-77
2022/11/17 00:46:41;;;;;;;1.65;0.90;;;11.60;99.90;;;;;;5052033;28;20178;-76
2022/11/17 00:49:08;;;;;;;1.88;0.80;;;11.60;99.90;;;;;;5052588;28;20079;-77
2022/11/17 00:51:34;;;;;;;2.53;1.02;;;11.60;99.90;;;;;;5053870;28;20040;-77
2022/11/17 00:54:00;;;;;;;4.57;1.15;;;11.60;99.90;;;;;;5053414;28;20029;-76
2022/11/17 00:56:26;;;;;;;1.50;0.70;;;11.60;99.90;;;;;;5052254;28;20025;-76
2022/11/17 00:58:53;;;;;;;2.72;0.80;;;11.70;99.90;;;;;;5052416;28;20028;-77
2022/11/17 01:01:19;;;;;;;2.60;0.95;;;11.70;99.90;;;;;;5053447;28;20033;-76
2022/11/17 01:03:44;;;;;;;2.25;1.10;;;11.70;99.90;;;;;;5052493;28;20037;-76
2022/11/17 01:06:13;;;;;;;4.60;0.93;;;11.70;99.90;;;;;;5051746;28;20074;-76
2022/11/17 01:08:39;;;;;;;2.65;0.73;;;11.70;99.90;;;;;;5051500;28;20056;-76
2022/11/17 01:11:16;;;;;;;0.88;0.60;;;11.70;99.90;;;;;;5051665;28;20513;-76
2022/11/17 01:13:43;;;;;;;3.25;0.75;;;11.70;99.90;;;;;;5052853;28;20079;-76
2022/11/17 01:16:14;;;;;;;0.98;0.57;;;11.70;99.90;;;;;;5051830;28;20115;-76
2022/11/17 01:18:42;;;;;;;2.70;0.80;;;11.70;99.90;;;;;;5051313;28;20088;-77
2022/11/17 01:21:09;;;;;;;0.93;0.75;;;11.70;99.90;;;;;;5053726;28;20033;-76
2022/11/17 01:23:39;;;;;;;2.67;0.65;;;11.70;99.90;;;;;;5053050;28;20033;-76
2022/11/17 01:26:07;;;;;;;1.35;0.47;;;11.70;99.90;;;;;;5051724;28;20025;-76
2022/11/17 01:28:33;;;;;;;3.03;0.85;;;11.70;99.90;;;;;;5053167;28;20087;-76
2022/11/17 01:31:04;;;;;;;2.25;0.60;;;11.70;99.90;;;;;;5051050;28;20100;-76
2022/11/17 01:33:30;;;;;;;3.53;0.50;;;11.80;99.90;;;;;;5052763;28;20425;-75
2022/11/17 01:35:59;;;;;;;2.25;0.63;;;11.80;99.90;;;;;;5051354;28;20458;-76
2022/11/17 01:38:25;;;;;;;1.88;0.75;;;11.80;99.90;;;;;;5052615;28;20029;-76
2022/11/17 01:40:51;;;;;;;1.10;0.60;;;11.80;99.90;;;;;;5051310;28;20029;-76
2022/11/17 01:43:16;;;;;;;3.30;0.73;;;11.80;99.90;;;;;;5052288;28;20033;-76
2022/11/17 01:45:43;;;;;;;2.88;1.02;;;11.80;99.90;;;;;;5050834;28;20025;-77
2022/11/17 01:48:12;;;;;;;3.33;1.20;;;11.80;99.90;;;;;;5052585;28;20037;-76
2022/11/17 01:50:46;;;;;;;1.73;0.88;;;11.80;99.90;;;;;;5051457;28;20036;-76
2022/11/17 01:53:16;;;;;;;1.40;0.65;;;11.80;99.90;;;;;;5051771;28;20045;-76
2022/11/17 01:55:52;;;;;;;1.67;0.80;;;11.80;99.90;;;;;;5051097;28;20108;-77
2022/11/17 01:58:24;;;;;;;2.15;0.73;;;11.80;99.90;;;;;;5051400;28;20033;-76
2022/11/17 02:00:50;;;;;;;2.35;0.82;;;11.80;99.90;;;;;;5050669;28;20033;-77
2022/11/17 02:03:16;;;;;;;1.85;0.85;;;11.80;99.90;;;;;;5052016;28;20044;-76
2022/11/17 02:05:50;;;;;;;2.42;1.02;;;11.70;99.90;;;;;;5050734;28;20032;-76
2022/11/17 02:08:19;;;;;;;2.47;1.10;;;11.70;99.90;;;;;;5051497;28;20033;-76
2022/11/17 02:10:46;;;;;;;2.67;0.65;;;11.70;99.90;;;;;;5050567;28;20049;-77
2022/11/17 02:13:12;;;;;;;1.27;0.82;;;11.70;99.90;;;;;;5051358;28;20112;-76
2022/11/17 02:15:38;;;;;;;3.30;0.95;;;11.70;99.90;;;;;;5051341;28;20032;-76
2022/11/17 02:18:04;;;;;;;3.38;1.08;;;11.70;99.90;;;;;;5051950;28;20071;-76
2022/11/17 02:20:41;;;;;;;1.13;0.77;;;11.70;99.90;;;;;;5051293;28;20040;-76
2022/11/17 02:23:44;;;;;;;2.15;0.88;;;11.70;99.90;;;;;;5051837;28;20025;-76
2022/11/17 02:26:35;;;;;;;2.38;0.80;;;11.70;99.90;;;;;;5054799;28;20048;-75
2022/11/17 02:29:33;;;;;;;3.53;0.80;;;11.70;99.90;;;;;;5055235;28;20677;-76
2022/11/17 02:32:15;;;;;;;1.73;1.00;;;11.70;99.90;;;;;;5043134;28;20056;-76
2022/11/17 02:35:12;;;;;;;2.10;0.93;;;11.70;99.90;;;;;;5055033;28;20028;-76
2022/11/17 02:37:49;;;;;;;2.55;0.65;;;11.80;99.90;;;;;;5055754;28;20083;-76
2022/11/17 02:40:25;;;;;;;1.38;0.73;;;11.70;99.90;;;;;;5055036;28;20029;-76
2022/11/17 02:45:46;;;;;;;;;;;11.80;99.90;;;;;;5056179;28;20055;-76
2022/11/17 02:48:18;;;;;;;2.72;0.90;;;11.80;99.90;;;;;;5054895;28;20263;-76
2022/11/17 02:50:47;;;;;;;1.38;0.70;;;11.80;99.90;;;;;;5054454;28;20382;-77
2022/11/17 02:53:14;;;;;;;1.80;0.80;;;11.80;99.90;;;;;;5054351;28;20074;-76
2022/11/17 02:55:39;;;;;;;2.22;0.90;;;11.80;99.90;;;;;;5054340;28;20416;-76
2022/11/17 02:58:11;;;;;;;1.33;0.70;;;11.80;99.90;;;;;;5055261;28;20168;-76
2022/11/17 03:00:48;;;;;;;5.10;1.05;;;11.80;99.90;;;;;;5054153;28;20048;-76
2022/11/17 03:03:31;;;;;;;2.15;1.00;;;11.70;99.90;;;;;;5055702;28;20033;-76
2022/11/17 03:06:16;;;;;;;1.00;0.80;;;11.70;99.90;;;;;;5053894;28;20489;-76
2022/11/17 03:08:53;;;;;;;3.42;0.98;;;11.70;99.90;;;;;;5053815;28;20051;-76
2022/11/17 03:11:25;;;;;;;2.58;1.00;;;11.60;99.90;;;;;;5055473;28;20131;-76
2022/11/17 03:14:09;;;;;;;1.05;0.80;;;11.60;99.90;;;;;;5053406;28;20455;-76
2022/11/17 03:16:54;;;;;;;1.92;0.82;;;11.60;99.90;;;;;;5055394;28;20029;-75
2022/11/17 03:19:39;;;;;;;3.47;0.85;;;11.60;99.90;;;;;;5055477;28;20378;-76
2022/11/17 03:22:16;;;;;;;2.67;1.10;;;11.60;99.90;;;;;;5053444;28;20480;-76
2022/11/17 03:24:48;;;;;;;1.33;0.90;;;11.60;99.90;;;;;;5054923;28;20029;-76
2022/11/17 03:27:24;;;;;;;1.90;0.70;;;11.60;99.90;;;;;;5054238;28;20363;-76
2022/11/17 03:29:54;;;;;;;2.80;0.80;;;11.60;99.90;;;;;;5054428;28;20366;-76
2022/11/17 03:32:22;;;;;;;1.42;0.90;;;11.50;99.90;;;;;;5053765;28;20025;-76
2022/11/17 03:34:54;;;;;;;1.75;0.70;;;11.60;99.90;;;;;;5052697;28;20121;-76
2022/11/17 03:37:22;;;;;;;2.55;0.95;;;11.60;99.90;;;;;;5053180;28;20025;-76
2022/11/17 03:39:52;;;;;;;3.33;1.05;;;11.60;99.90;;;;;;5053398;28;20033;-76
2022/11/17 03:42:20;;;;;;;2.28;0.88;;;11.50;99.90;;;;;;5054883;28;20058;-76
2022/11/17 03:44:53;;;;;;;2.42;0.88;;;11.60;99.90;;;;;;5053116;28;20021;-76
2022/11/17 03:47:21;;;;;;;3.78;0.90;;;11.50;99.90;;;;;;5054597;28;20047;-76
2022/11/17 03:49:58;;;;;;;2.20;0.98;;;11.50;99.90;;;;;;5054334;28;20036;-76
2022/11/17 03:52:25;;;;;;;4.90;1.00;;;11.50;99.90;;;;;;5054419;28;20032;-76
2022/11/17 03:54:52;;;;;;;2.75;0.93;;;11.40;99.90;;;;;;5053990;28;20029;-76
2022/11/17 03:57:31;;;;;;;1.63;0.90;;;11.40;99.90;;;;;;5054337;28;20040;-76
2022/11/17 04:00:07;;;;;;;2.60;1.00;;;11.40;99.90;;;;;;5052481;28;20402;-76
2022/11/17 04:02:32;;;;;;;2.03;0.95;;;11.40;99.90;;;;;;5053309;28;20036;-76
2022/11/17 04:05:07;;;;;;;1.58;0.80;;;11.40;99.90;;;;;;5052803;28;20370;-77
2022/11/17 04:07:41;;;;;;;1.92;1.08;;;11.40;99.90;;;;;;5053298;28;20501;-77
2022/11/17 04:10:16;;;;;;;4.18;1.10;;;11.40;99.90;;;;;;5052445;28;20620;-77
2022/11/17 04:18:14;;;;;;;2.33;1.00;;;11.40;99.90;;;;;;5053641;28;20035;-77
2022/11/17 04:20:41;;;;;;;3.55;0.77;;;11.40;99.90;;;;;;5052712;28;20025;-77
2022/11/17 04:23:10;;;;;;;4.07;1.83;;;11.40;99.90;;;;;;5053309;28;20377;-77
2022/11/17 04:28:35;;;;;;;1.23;0.80;;;11.30;99.90;;;;;;5054039;28;20468;-78
2022/11/17 04:31:18;;;;;;;2.40;0.90;;;11.30;99.90;;;;;;5051758;28;20037;-77
2022/11/17 04:33:47;;;;;;;;;;;11.40;99.90;;;;;;5052895;28;20033;-78
2022/11/17 04:36:15;;;;;;;1.27;0.70;;;11.40;99.90;;;;;;5053337;28;19920;-77
2022/11/17 04:38:46;;;;;;;2.22;0.70;;;11.40;99.90;;;;;;5052356;28;20036;-77
2022/11/17 04:43:59;;;;;;;2.40;1.23;;;11.40;99.90;;;;;;5053165;28;20079;-78
2022/11/17 04:46:25;;;;;;;4.25;1.38;;;11.30;99.90;;;;;;5053558;28;20103;-78
2022/11/17 04:48:53;;;;;;;6.57;1.15;;;11.30;99.90;;;;;;5053651;28;20028;-78
2022/11/17 04:51:19;;;;;;;1.70;0.95;;;11.30;99.90;;;;;;5052860;28;20079;-78
2022/11/17 04:53:45;;;;;;;1.10;0.75;;;11.30;99.90;;;;;;5054049;28;20060;-78
2022/11/17 04:56:12;;;;;;;1.17;0.40;;;11.30;99.90;;;;;;5053335;28;20249;-78
2022/11/17 04:58:38;;;;;;;2.75;0.70;;;11.40;99.90;;;;;;5053559;28;20378;-78
2022/11/17 05:01:12;;;;;;;1.40;0.40;;;11.40;99.90;;;;;;5051969;28;20063;-78
2022/11/17 05:03:40;;;;;;;0.63;0.30;;;11.40;99.90;;;;;;5054080;28;20043;-78
2022/11/17 05:06:05;;;;;;;2.45;0.35;;;11.40;99.90;;;;;;5052300;28;20379;-78
2022/11/17 05:08:33;;;;;;;2.42;0.50;;;11.40;99.90;;;;;;5052971;28;20024;-78
2022/11/17 05:13:42;;;;;;;1.00;0.60;;;11.40;99.90;;;;;;5053590;28;20085;-78
2022/11/17 05:18:52;;;;;;;1.17;0.60;;;11.40;99.90;;;;;;5052940;28;20028;-78
2022/11/17 05:21:17;;;;;;;1.77;0.60;;;11.50;99.90;;;;;;5051811;28;20033;-78
2022/11/17 05:23:55;;;;;;;1.83;0.60;;;11.50;99.90;;;;;;5051762;28;20412;-77
2022/11/17 05:26:29;;;;;;;2.05;0.63;;;11.50;99.90;;;;;;5053045;28;20025;-78
2022/11/17 05:28:57;;;;;;;1.23;0.50;;;11.50;99.90;;;;;;5052082;28;20108;-77
2022/11/17 05:31:24;;;;;;;1.98;0.75;;;11.60;99.90;;;;;;5051702;28;20033;-77
2022/11/17 05:33:50;;;;;;;1.10;0.50;;;11.60;99.90;;;;;;5051271;28;20029;-78
2022/11/17 05:36:17;;;;;;;2.17;0.80;;;11.50;99.90;;;;;;5051159;28;20029;-77
2022/11/17 05:38:44;;;;;;;1.40;0.60;;;11.60;99.90;;;;;;5051486;28;20060;-77
2022/11/17 05:41:10;;;;;;;1.30;0.50;;;11.60;99.90;;;;;;5052046;28;20104;-77
2022/11/17 05:43:35;;;;;;;1.40;0.68;;;11.60;99.90;;;;;;5051677;28;20028;-77
2022/11/17 05:46:01;;;;;;;1.42;0.80;;;11.60;99.90;;;;;;5050714;28;20561;-77
2022/11/17 05:48:27;;;;;;;1.67;0.55;;;11.60;99.90;;;;;;5051752;28;20037;-77
2022/11/17 05:50:54;;;;;;;1.80;0.70;;;11.60;99.90;;;;;;5052629;28;20029;-77
2022/11/17 05:53:20;;;;;;;1.02;0.30;;;11.60;99.90;;;;;;5052511;28;20049;-77
2022/11/17 05:55:46;;;;;;;0.32;0.30;;;11.60;99.90;;;;;;5051262;28;20036;-77
2022/11/17 05:58:18;;;;;;;1.75;0.30;;;11.60;99.90;;;;;;5052140;28;20425;-77
2022/11/17 06:00:43;;;;;;;0.95;0.50;;;11.60;99.90;;;;;;5057124;28;20033;-78
2022/11/17 06:03:23;;;;;;;0.90;0.30;;;11.60;99.90;;;;;;5055339;28;20525;-78
2022/11/17 06:05:49;;;;;;;1.10;0.40;;;11.60;99.90;;;;;;5055973;28;20021;-78
2022/11/17 06:08:15;;;;;;;1.05;0.38;;;11.60;99.90;;;;;;5056465;28;20028;-77
2022/11/17 06:10:41;;;;;;;0.80;0.40;;;11.60;99.90;;;;;;5056630;28;20053;-77
2022/11/17 06:13:07;;;;;;;2.60;0.47;;;11.60;99.90;;;;;;5056118;28;20078;-77
2022/11/17 06:15:33;;;;;;;0.75;0.40;;;11.50;99.90;;;;;;5054883;28;20056;-78
2022/11/17 06:18:04;;;;;;;1.00;0.45;;;11.50;99.90;;;;;;5054188;28;20124;-77
2022/11/17 06:20:34;;;;;;;1.40;0.30;;;11.50;99.90;;;;;;5056250;28;20021;-77
2022/11/17 06:23:04;;;;;;;1.17;0.57;;;11.50;99.90;;;;;;5055665;28;20471;-77
2022/11/17 06:25:33;;;;;;;1.10;0.22;;;11.50;99.90;;;;;;5055889;28;20094;-78
2022/11/17 06:28:05;;;;;;;0.65;0.30;;;11.50;99.90;;;;;;5055380;28;20037;-78
2022/11/17 06:30:33;;;;;;;1.08;0.47;;;11.40;99.90;;;;;;5055297;28;20028;-77
2022/11/17 06:32:59;;;;;;;1.40;0.20;;;11.50;99.90;;;;;;5055619;28;20436;-79
2022/11/17 06:35:27;;;;;;;0.88;0.40;;;11.50;99.90;;;;;;5055458;28;20025;-78
2022/11/17 06:37:53;;;;;;;1.90;0.50;;;11.60;99.90;;;;;;5054967;28;20111;-78
2022/11/17 06:40:18;;;;;;;1.50;0.28;;;11.60;99.90;;;;;;5055415;28;20143;-78
2022/11/17 06:43:02;;;;;;;3.55;0.50;;;11.60;99.90;;;;;;5055053;28;20466;-78
2022/11/17 06:45:31;;;;;;;2.83;0.50;;;11.60;99.90;;;;;;5055165;28;20489;-77
2022/11/17 06:47:57;;;;;;;1.08;0.45;;;11.60;99.90;;;;;;5054571;28;20032;-78
2022/11/17 06:50:22;;;;;;;1.55;0.30;;;11.60;99.90;;;;;;5055451;28;20024;-78
2022/11/17 06:52:48;;;;;;;1.10;0.50;;;11.60;99.90;;;;;;5054900;28;20381;-78
2022/11/17 06:55:14;;;;;;;1.35;0.60;;;11.70;99.90;;;;;;5055409;28;20100;-78
2022/11/17 06:57:39;;;;;;;2.05;0.60;;;11.70;99.90;;;;;;5055632;28;20458;-78
2022/11/17 07:00:06;;;;;;;2.83;0.45;;;11.70;99.90;;;;;;5053845;28;20116;-78
2022/11/17 07:02:31;;;;;;;0.95;0.30;;;11.70;99.90;;;;;;5054509;28;20071;-78
2022/11/17 07:04:57;;;;;;;2.22;0.50;;;11.80;99.90;;;;;;5055269;28;20108;-78
2022/11/17 07:07:23;;;;;;;0.35;0.30;;;11.80;99.90;;;;;;5054035;28;20082;-78
2022/11/17 07:09:48;;;;;;;1.55;0.75;;;11.80;99.90;;;;;;5053672;28;20381;-78
2022/11/17 07:12:15;;;;;;;3.13;0.60;;;11.90;99.90;;;;;;5053953;28;20455;-78
2022/11/17 07:14:40;;;;;;;2.55;0.60;;;11.90;99.90;;;;;;5055823;28;20037;-78
2022/11/17 07:17:06;;;;;;;1.70;0.52;;;11.90;99.90;;;;;;5053613;28;20029;-77
2022/11/17 07:19:32;;;;;;;2.08;0.50;;;11.90;99.90;;;;;;5054231;28;20386;-78
2022/11/17 07:21:57;;;;;;;1.48;0.50;;;11.90;99.90;;;;;;5054188;28;20460;-76
2022/11/17 07:24:23;;;;;;;1.73;0.57;;;11.90;99.90;;;;;;5054917;28;20025;-78
2022/11/17 07:26:49;;;;;;;2.78;0.52;;;12.00;99.90;;;;;;5054180;28;20025;-78
2022/11/17 07:29:14;;;;;;;2.25;0.60;;;12.00;99.90;;;;;;5053395;28;20025;-78
2022/11/17 07:31:40;;;;;;;2.90;1.08;;;12.00;99.90;;;;;;5053960;28;20126;-78
2022/11/17 07:34:05;;;;;;;2.78;0.88;;;12.00;99.90;;;;;;5054559;28;20021;-78
2022/11/17 07:36:32;;;;;;;2.60;0.73;;;12.10;99.90;;;;;;5053770;28;20021;-78
2022/11/17 07:38:57;;;;;;;5.57;0.70;;;12.10;99.90;;;;;;5055231;28;20041;-78
2022/11/17 07:41:23;;;;;;;3.95;0.60;;;12.10;99.90;;;;;;5054404;28;20086;-77
2022/11/17 07:43:49;;;;;;;4.05;0.60;;;12.20;99.90;;;;;;5053778;28;20025;-77
2022/11/17 07:46:14;;;;;;;3.33;0.60;;;12.30;99.90;;;;;;5054581;28;20056;-78
2022/11/17 07:48:41;;;;;;;2.42;0.57;;;12.40;99.90;;;;;;5053548;28;20029;-78
2022/11/17 07:51:07;;;;;;;3.85;1.23;;;12.30;99.90;;;;;;5052537;28;20025;-77
2022/11/17 07:53:34;;;;;;;2.25;0.50;;;12.40;99.90;;;;;;5052989;28;20470;-77
2022/11/17 07:56:10;;;;;;;6.72;0.43;;;12.50;99.90;;;;;;5055585;28;20035;-77
2022/11/17 07:58:37;;;;;;;2.53;0.50;;;12.50;99.90;;;;;;5052958;28;20115;-78
2022/11/17 08:01:07;;;;;;;2.88;0.47;;;12.50;99.90;;;;;;5068455;28;20125;-78
2022/11/17 08:03:33;;;;;;;1.30;0.40;;;12.50;99.90;;;;;;5055722;28;20124;-77
2022/11/17 08:06:03;;;;;;;1.70;0.30;;;12.50;99.90;;;;;;5054295;28;20064;-78
2022/11/17 08:08:29;;;;;;;2.85;0.35;;;12.50;99.90;;;;;;5053050;28;20037;-77
2022/11/17 08:10:55;;;;;;;4.32;0.60;;;12.50;99.90;;;;;;5067964;28;20053;-78
2022/11/17 08:13:21;;;;;;;2.33;0.50;;;12.50;99.90;;;;;;5071219;28;20028;-78
2022/11/17 08:15:46;;;;;;;3.63;0.52;;;12.50;99.90;;;;;;5059730;28;20535;-77
2022/11/17 08:18:12;;;;;;;3.22;0.55;;;12.50;99.90;;;;;;5062613;28;20033;-77
2022/11/17 08:20:38;;;;;;;5.97;0.70;;;12.60;99.90;;;;;;5057566;28;20033;-78
2022/11/17 08:23:04;;;;;;;1.52;0.60;;;12.60;99.90;;;;;;5051898;28;20051;-79
2022/11/17 08:25:29;;;;;;;3.50;0.77;;;12.60;99.90;;;;;;5069397;28;20025;-77
2022/11/17 08:27:56;;;;;;;1.85;0.45;;;12.60;99.90;;;;;;5059468;28;20035;-78
2022/11/17 08:30:23;;;;;;;0.70;0.40;;;12.70;99.90;;;;;;5061067;28;20092;-78
2022/11/17 08:32:51;;;;;;;4.13;1.15;;;12.80;99.90;;;;;;5053884;28;20036;-78
2022/11/17 08:35:18;;;;;;;2.00;0.75;;;12.90;99.90;;;;;;5069696;28;20063;-78
2022/11/17 08:37:44;;;;;;;3.30;0.60;;;12.90;99.90;;;;;;5057224;28;20032;-78
2022/11/17 08:40:11;;;;;;;1.50;0.50;;;12.90;99.90;;;;;;5062692;28;20528;-77
2022/11/17 08:42:37;;;;;;;3.05;0.60;;;13.00;99.90;;;;;;5066091;28;20048;-78
2022/11/17 08:45:03;;;;;;;0.73;0.40;;;13.00;99.90;;;;;;5073298;28;20378;-78
2022/11/17 08:47:29;;;;;;;5.18;0.70;;;13.00;99.90;;;;;;5038224;28;20025;-77
2022/11/17 08:49:55;;;;;;;2.80;0.45;;;13.00;99.90;;;;;;5065086;28;20028;-78
2022/11/17 08:52:21;;;;;;;3.58;0.57;;;13.10;99.90;;;;;;5061726;28;20059;-77
2022/11/17 08:54:46;;;;;;;1.63;0.55;;;13.10;99.90;;;;;;5057975;28;20118;-78
2022/11/17 08:57:12;;;;;;;3.00;0.43;;;13.10;99.90;;;;;;5069624;28;20028;-78
2022/11/17 08:59:38;;;;;;;3.67;0.50;;;13.10;99.90;;;;;;5057706;28;20192;-79
2022/11/17 09:02:04;;;;;;;3.22;0.50;;;13.30;99.90;;;;;;5065378;28;20037;-79
2022/11/17 09:04:30;;;;;;;3.28;0.35;;;13.40;99.90;;;;;;5052024;28;20037;-79
2022/11/17 09:06:55;;;;;;;1.50;0.40;;;13.50;99.90;;;;;;5067942;28;20107;-78
2022/11/17 09:09:21;;;;;;;3.25;0.40;;;13.50;99.90;;;;;;5054485;28;20047;-78
2022/11/17 09:11:47;;;;;;;1.40;0.38;;;13.50;99.90;;;;;;5073153;28;20045;-77
2022/11/17 09:14:12;;;;;;;1.98;0.40;;;13.60;99.90;;;;;;5062181;28;20489;-78
2022/11/17 09:16:38;;;;;;;5.45;0.68;;;13.60;99.90;;;;;;5064789;28;20055;-77
2022/11/17 09:19:04;;;;;;;1.10;0.45;;;13.60;99.90;;;;;;5056423;28;20031;-78
2022/11/17 09:21:31;;;;;;;2.45;0.40;;;13.70;99.90;;;;;;5054907;28;20016;-78
2022/11/17 09:23:56;;;;;;;4.22;0.60;;;13.60;99.90;;;;;;5064723;28;20031;-78
2022/11/17 09:26:22;;;;;;;2.88;0.40;;;13.60;99.90;;;;;;5061491;28;20107;-78
2022/11/17 09:28:48;;;;;;;3.33;0.50;;;13.60;99.90;;;;;;5058447;28;20501;-78
2022/11/17 09:31:16;;;;;;;2.97;0.40;;;13.60;99.90;;;;;;5068010;28;20020;-78
2022/11/17 09:33:42;;;;;;;0.95;0.32;;;13.60;99.90;;;;;;5057762;28;20477;-77
2022/11/17 09:36:09;;;;;;;2.05;0.40;;;13.50;99.90;;;;;;5061773;28;20056;-78
2022/11/17 09:38:35;;;;;;;1.90;0.30;;;13.50;99.90;;;;;;5050839;28;20029;-77
2022/11/17 09:41:11;;;;;;;2.10;0.50;;;13.50;99.90;;;;;;5068109;28;20028;-78
2022/11/17 09:43:40;;;;;;;3.40;0.43;;;13.50;99.90;;;;;;5040396;28;20024;-78
2022/11/17 09:46:28;;;;;;;7.20;0.90;;;13.50;99.90;;;;;;5063742;28;20033;-79
2022/11/17 09:49:33;;;;;;;2.72;0.70;;;13.50;99.90;;;;;;5067634;28;20040;-78
2022/11/17 09:52:04;;;;;;;1.65;0.50;;;13.40;99.90;;;;;;5032087;28;20116;-78
2022/11/17 09:54:39;;;;;;;1.27;0.38;;;13.50;99.90;;;;;;5032051;28;20434;-78
2022/11/17 09:57:17;;;;;;;2.70;0.73;;;13.40;99.90;;;;;;5030992;28;20132;-78
2022/11/17 09:59:42;;;;;;;4.50;0.80;;;13.40;99.90;;;;;;5057751;28;20036;-78
2022/11/17 10:02:09;;;;;;;3.25;0.50;;;13.50;99.90;;;;;;5051190;28;20470;-79
2022/11/17 10:04:34;;;;;;;2.95;0.30;;;13.50;99.90;;;;;;5065318;28;20031;-78
2022/11/17 10:07:02;;;;;;;2.95;0.43;;;13.50;99.90;;;;;;5055406;28;20029;-78
2022/11/17 10:09:44;;;;;;;2.80;0.50;;;13.60;99.90;;;;;;5054106;28;20024;-77
2022/11/17 10:12:22;;;;;;;5.05;0.73;;;13.70;99.90;;;;;;5061401;28;20131;-78
2022/11/17 10:14:48;;;;;;;3.30;0.70;;;13.90;99.90;;;;;;5055361;28;20070;-78
2022/11/17 10:17:14;;;;;;;2.28;0.40;;;14.00;99.90;;;;;;5066821;28;20025;-78
2022/11/17 10:19:41;;;;;;;4.00;0.60;;;14.00;99.90;;;;;;5054764;28;20039;-78
2022/11/17 10:22:06;;;;;;;3.22;0.60;;;14.00;99.90;;;;;;5059431;28;20031;-78
2022/11/17 10:24:49;;;;;;;2.00;0.60;;;14.00;99.90;;;;;;5058818;28;20029;-78
2022/11/17 10:27:26;;;;;;;2.97;0.40;;;14.00;99.90;;;;;;5058619;28;20021;-78
2022/11/17 10:30:01;;;;;;;2.47;0.63;;;13.90;99.90;;;;;;5056914;28;20533;-80
2022/11/17 10:32:46;;;;;;;3.03;0.55;;;13.80;99.90;;;;;;5060902;28;20497;-77
2022/11/17 10:35:13;;;;;;;3.70;0.40;;;13.90;99.90;;;;;;5067264;28;20066;-81
2022/11/17 10:38:02;;;;;;;5.82;0.70;;;13.80;99.90;;;;;;5055190;28;20110;-78
2022/11/17 10:40:37;;;;;;;3.72;0.73;;;13.60;99.90;;;;;;5040703;28;20625;-78
2022/11/17 10:43:12;;;;;;;2.00;0.50;;;13.40;99.90;;;;;;5061682;28;20087;-76
2022/11/17 10:46:00;;;;;;;2.75;0.55;;;13.20;99.90;;;;;;5043193;28;20032;-78
2022/11/17 10:48:28;;;;;;;4.05;0.50;;;13.20;99.90;;;;;;5064716;28;20039;-81
2022/11/17 10:50:56;;;;;;;3.17;0.40;;;13.20;99.90;;;;;;5062999;28;20025;-77
2022/11/17 10:53:26;;;;;;;5.63;0.68;;;13.00;99.90;;;;;;5066097;28;20083;-80
2022/11/17 10:56:02;;;;;;;2.58;0.52;;;13.10;99.90;;;;;;5064435;28;20021;-77
2022/11/17 10:58:30;;;;;;;3.72;0.80;;;13.00;99.90;;;;;;5060889;28;20052;-80
2022/11/17 11:00:58;;;;;;;5.93;0.50;;;13.00;99.90;;;;;;5063822;28;20469;-78
2022/11/17 11:03:33;;;;;;;3.30;0.50;;;13.10;99.90;;;;;;5057247;28;20106;-78
2022/11/17 11:06:03;;;;;;;3.67;0.65;;;13.10;99.90;;;;;;5061473;28;20041;-78
2022/11/17 11:08:49;;;;;;;5.00;0.60;;;13.20;99.90;;;;;;5062268;28;20035;-76
2022/11/17 11:11:47;;;;;;;2.22;0.63;;;13.30;99.90;;;;;;5061601;28;20051;-75
2022/11/17 11:14:39;;;;;;;4.57;0.68;;;13.40;99.90;;;;;;5060605;28;20501;-79
2022/11/17 11:17:13;;;;;;;4.15;0.47;;;13.40;99.90;;;;;;5057834;28;20032;-80
2022/11/17 11:19:47;;;;;;;3.47;0.50;;;13.40;99.90;;;;;;5065169;28;20132;-77
2022/11/17 11:22:29;;;;;;;3.30;0.57;;;13.40;99.90;;;;;;5055373;28;20029;-76
2022/11/17 11:25:00;;;;;;;4.00;0.85;;;13.40;99.90;;;;;;5060684;28;20413;-76
2022/11/17 11:27:50;;;;;;;4.60;0.70;;;13.40;99.90;;;;;;5069723;28;20128;-76
2022/11/17 11:30:17;;;;;;;2.75;0.50;;;13.50;99.90;;;;;;5059285;28;20064;-76
2022/11/17 11:33:32;;;;;;;3.97;0.55;;;13.60;99.90;;;;;;5062899;28;20433;-76
2022/11/17 11:36:44;;;;;;;2.75;0.50;;;13.80;99.90;;;;;;5046116;28;20033;-77
2022/11/17 11:39:33;;;;;;;4.35;0.57;;;13.80;99.90;;;;;;5047198;28;20048;-76
2022/11/17 11:42:49;;;;;;;4.28;0.45;;;14.00;99.90;;;;;;5065192;28;20048;-76
2022/11/17 11:45:21;;;;;;;2.72;0.40;;;14.10;99.90;;;;;;5020525;28;20025;-77
2022/11/17 11:47:49;;;;;;;4.65;0.70;;;14.20;99.90;;;;;;5060417;28;20112;-76
2022/11/17 11:50:40;;;;;;;2.58;0.40;;;14.40;99.90;;;;;;5058742;28;20028;-76
2022/11/17 11:53:18;;;;;;;1.92;0.80;;;14.40;99.90;;;;;;5054596;28;20024;-77
2022/11/17 11:55:48;;;;;;;4.85;0.40;;;14.40;99.90;;;;;;5061422;28;20029;-75
2022/11/17 11:58:23;;;;;;;6.10;0.82;;;14.30;99.90;;;;;;5063784;28;20028;-77
2022/11/17 12:00:52;;;;;;;4.30;0.70;;;14.40;99.90;;;;;;5058077;28;20041;-79
2022/11/17 12:03:40;;;;;;;1.90;0.52;;;14.30;99.90;;;;;;5065055;28;20025;-75
2022/11/17 12:09:18;;;;;;;3.70;0.50;;;14.40;99.90;;;;;;5057958;28;20043;-74
2022/11/17 12:12:00;;;;;;;4.15;0.30;;;14.40;99.90;;;;;;5049860;28;20053;-74
2022/11/17 12:14:37;;;;;;;4.13;0.90;;;14.30;99.90;;;;;;5068488;28;20856;-78
2022/11/17 12:17:11;;;;;;;4.43;0.57;;;14.30;99.90;;;;;;5052833;28;20431;-74
2022/11/17 12:19:43;;;;;;;2.92;0.70;;;14.30;99.90;;;;;;5059648;28;20036;-76
2022/11/17 12:22:40;;;;;;;4.07;0.60;;;14.40;99.90;;;;;;5059616;28;20065;-75
2022/11/17 12:25:26;;;;;;;6.97;0.65;;;14.30;99.90;;;;;;5033751;28;20087;-79
2022/11/17 12:27:52;;;;;;;3.45;0.80;;;14.40;99.90;;;;;;5058442;28;20029;-76
2022/11/17 12:30:33;;;;;;;6.13;0.80;;;14.70;99.90;;;;;;5059710;28;20033;-76
2022/11/17 12:33:07;;;;;;;2.85;0.73;;;14.50;99.90;;;;;;5063796;28;20394;-76
2022/11/17 12:35:35;;;;;;;6.28;0.80;;;14.50;99.90;;;;;;5069391;28;20036;-75
2022/11/17 12:38:14;;;;;;;3.47;0.60;;;14.60;99.90;;;;;;5052091;28;20447;-77
2022/11/17 12:40:52;;;;;;;1.98;0.55;;;14.50;99.90;;;;;;5050593;28;20028;-76
2022/11/17 12:43:21;;;;;;;2.08;1.02;;;14.50;99.90;;;;;;5052850;28;20037;-75
2022/11/17 12:45:58;;;;;;;4.10;0.55;;;14.50;99.90;;;;;;5057460;28;20025;-75
2022/11/17 12:48:36;;;;;;;4.93;0.70;;;14.30;99.90;;;;;;5056183;28;20079;-74
2022/11/17 12:51:23;;;;;;;5.57;0.65;;;14.30;99.90;;;;;;5053670;28;20086;-76
2022/11/17 12:53:58;;;;;;;7.50;0.98;;;14.20;99.90;;;;;;5050259;28;20033;-75
2022/11/17 12:56:43;;;;;;;3.22;0.70;;;14.00;99.90;;;;;;5068143;28;20025;-76
2022/11/17 12:59:14;;;;;;;3.65;0.60;;;13.80;99.90;;;;;;5061629;28;20044;-79
2022/11/17 13:02:11;;;;;;;2.90;0.85;;;13.70;99.90;;;;;;5067813;28;20049;-77
2022/11/17 13:04:49;;;;;;;6.50;0.50;;;14.00;99.90;;;;;;5061699;28;20033;-77
2022/11/17 13:07:20;;;;;;;2.47;0.47;;;14.00;99.90;;;;;;5063804;28;20120;-77
2022/11/17 13:09:55;;;;;;;4.45;0.60;;;14.30;99.90;;;;;;5057051;28;20033;-76
2022/11/17 13:12:32;;;;;;;2.42;0.40;;;14.50;99.90;;;;;;5051617;28;20079;-75
2022/11/17 13:15:03;;;;;;;5.05;0.55;;;14.50;99.90;;;;;;5057038;28;20036;-76
2022/11/17 13:17:41;;;;;;;3.42;0.30;;;14.20;99.90;;;;;;5057918;28;20040;-76
2022/11/17 13:20:28;;;;;;;2.15;0.50;;;14.50;99.90;;;;;;5059258;28;20359;-77
2022/11/17 13:23:05;;;;;;;3.67;0.52;;;14.90;99.90;;;;;;5059239;28;20024;-74
2022/11/17 13:25:32;;;;;;;1.75;0.30;;;14.70;99.90;;;;;;5059269;28;20029;-76
2022/11/17 13:27:58;;;;;;;2.60;0.30;;;14.50;99.90;;;;;;5051158;28;20059;-76
2022/11/17 13:30:28;;;;;;;1.45;0.43;;;14.40;99.90;;;;;;5050746;28;20029;-76
2022/11/17 13:32:55;;;;;;;4.10;0.30;;;14.40;99.90;;;;;;5060988;28;20089;-77
2022/11/17 13:35:23;;;;;;;4.13;0.65;;;14.30;99.90;;;;;;5068225;28;20048;-77
2022/11/17 13:38:10;;;;;;;3.15;0.40;;;14.20;99.90;;;;;;5050028;28;20041;-76
2022/11/17 13:40:38;;;;;;;0.70;0.20;;;14.00;99.90;;;;;;5048701;28;20056;-73